LVKLH SUMU-SADF
Flight info
| Callsign | LVKLH |
|---|---|
| Flight time | N/A |
| Altitude | 24000 |
| Route | SUMU/07 DAGUS DCT UGIMI DCT TRINI 05UGIMIXTRINIXILSXZ/05 |
| Aircraft | GLF5/M-SFGHIRWXY/S |
Departure
| Time | N/A |
|---|---|
| Airport | Carrasco General Cesáreo L. Berisso International Airport (SUMU) |
Arrival
| Time | 2026-04-20 22:01 |
|---|---|
| Airport | San Fernando Airport (SADF) |
| Time | Latitude | Longitude | Altitude | Speed | Heading |
|---|---|---|---|---|---|
| 2026-04-20 21:54 | -34.68901 | -58.66740 | 6122 ft | 263 kts | 324° |
| 2026-04-20 21:54 | -34.67470 | -58.68137 | 5833 ft | 263 kts | 324° |
| 2026-04-20 21:55 | -34.66031 | -58.69541 | 5537 ft | 262 kts | 324° |
| 2026-04-20 21:55 | -34.64616 | -58.70918 | 5235 ft | 263 kts | 324° |
| 2026-04-20 21:55 | -34.63179 | -58.72312 | 4843 ft | 263 kts | 325° |
| 2026-04-20 21:55 | -34.61761 | -58.73686 | 4449 ft | 262 kts | 325° |
| 2026-04-20 21:56 | -34.60317 | -58.75062 | 4031 ft | 258 kts | 330° |
| 2026-04-20 21:56 | -34.58717 | -58.75596 | 3775 ft | 230 kts | 6° |
| 2026-04-20 21:56 | -34.57341 | -58.74868 | 3401 ft | 220 kts | 44° |
| 2026-04-20 21:56 | -34.56697 | -58.73242 | 3081 ft | 214 kts | 76° |
| 2026-04-20 21:57 | -34.56068 | -58.71694 | 2811 ft | 204 kts | 50° |
| 2026-04-20 21:57 | -34.55118 | -58.70458 | 2565 ft | 196 kts | 47° |
| 2026-04-20 21:57 | -34.54229 | -58.69375 | 2264 ft | 166 kts | 47° |
| 2026-04-20 21:57 | -34.53473 | -58.68478 | 2050 ft | 140 kts | 48° |
| 2026-04-20 21:58 | -34.52807 | -58.67694 | 1866 ft | 126 kts | 49° |
| 2026-04-20 21:58 | -34.52185 | -58.66960 | 1700 ft | 124 kts | 50° |
| 2026-04-20 21:58 | -34.51573 | -58.66239 | 1547 ft | 125 kts | 50° |
| 2026-04-20 21:58 | -34.50938 | -58.65492 | 1389 ft | 127 kts | 49° |
| 2026-04-20 21:59 | -34.50299 | -58.64745 | 1219 ft | 125 kts | 50° |
| 2026-04-20 21:59 | -34.49661 | -58.63998 | 1046 ft | 125 kts | 49° |
| 2026-04-20 21:59 | -34.49026 | -58.63245 | 897 ft | 121 kts | 49° |
| 2026-04-20 21:59 | -34.48378 | -58.62514 | 770 ft | 129 kts | 50° |
| 2026-04-20 22:00 | -34.47750 | -58.61783 | 583 ft | 124 kts | 50° |
| 2026-04-20 22:00 | -34.47116 | -58.61031 | 401 ft | 129 kts | 49° |
| 2026-04-20 22:00 | -34.46479 | -58.60295 | 203 ft | 123 kts | 50° |
| 2026-04-20 22:00 | -34.45823 | -58.59524 | 38 ft | 126 kts | 50° |
| 2026-04-20 22:01 | -34.45302 | -58.58905 | 17 ft | 77 kts | 44° |
| 2026-04-20 22:01 | -34.45050 | -58.58612 | 17 ft | 38 kts | 44° |
| 2026-04-20 22:01 | -34.44891 | -58.58426 | 17 ft | 25 kts | 44° |
| 2026-04-20 22:01 | -34.44884 | -58.58293 | 17 ft | 17 kts | 142° |
| 2026-04-20 22:02 | -34.44983 | -58.58220 | 17 ft | 15 kts | 149° |
| 2026-04-20 22:02 | -34.45071 | -58.58156 | 17 ft | 14 kts | 149° |
| 2026-04-20 22:02 | -34.45154 | -58.58096 | 17 ft | 13 kts | 149° |
| 2026-04-20 22:02 | -34.45232 | -58.58040 | 17 ft | 12 kts | 149° |
| 2026-04-20 22:03 | -34.45307 | -58.57987 | 17 ft | 10 kts | 150° |
| 2026-04-20 22:03 | -34.45348 | -58.58018 | 17 ft | 8 kts | 243° |
| 2026-04-20 22:03 | -34.45374 | -58.58080 | 17 ft | 8 kts | 243° |
| 2026-04-20 22:03 | -34.45400 | -58.58142 | 17 ft | 8 kts | 243° |
| 2026-04-20 22:04 | -34.45426 | -58.58202 | 17 ft | 7 kts | 243° |
| 2026-04-20 22:04 | -34.45451 | -58.58260 | 17 ft | 7 kts | 242° |
| 2026-04-20 22:04 | -34.45476 | -58.58318 | 17 ft | 7 kts | 243° |
| 2026-04-20 22:04 | -34.45500 | -58.58374 | 17 ft | 7 kts | 244° |
| 2026-04-20 22:05 | -34.45524 | -58.58429 | 17 ft | 7 kts | 243° |
| 2026-04-20 22:05 | -34.45559 | -58.58440 | 17 ft | 3 kts | 158° |
| 2026-04-20 22:05 | -34.45570 | -58.58442 | 17 ft | 0 kts | 192° |